createdAt,value
2023-03-05T00:01:07.909Z,18.20
2023-03-05T00:06:09.926Z,17.60
2023-03-05T00:11:12.910Z,17.70
2023-03-05T00:16:15.847Z,17.57
2023-03-05T00:21:29.392Z,17.87
2023-03-05T00:26:34.413Z,18.40
2023-03-05T00:31:37.439Z,17.83
2023-03-05T00:36:50.462Z,17.40
2023-03-05T00:41:52.710Z,17.83
2023-03-05T00:46:54.482Z,17.60
2023-03-05T00:51:56.207Z,19.03
2023-03-05T00:56:57.908Z,17.00
2023-03-05T01:01:59.534Z,18.27
2023-03-05T01:07:01.402Z,17.90
2023-03-05T01:12:03.266Z,17.70
2023-03-05T01:17:04.978Z,18.20
2023-03-05T01:22:06.645Z,18.60
2023-03-05T01:27:08.296Z,18.30
2023-03-05T01:32:09.996Z,18.27
2023-03-05T01:37:11.581Z,17.27
2023-03-05T01:42:13.272Z,19.07
2023-03-05T01:47:14.853Z,17.60
2023-03-05T01:52:19.711Z,18.43
2023-03-05T01:57:45.041Z,18.30
2023-03-05T02:02:50.959Z,16.53
2023-03-05T02:08:01.024Z,17.43
2023-03-05T02:13:06.735Z,17.80
2023-03-05T02:18:09.251Z,18.47
2023-03-05T02:23:10.869Z,17.43
2023-03-05T02:28:19.392Z,17.60
2023-03-05T02:33:21.342Z,17.50
2023-03-05T02:38:22.958Z,17.50
2023-03-05T02:43:24.900Z,17.77
2023-03-05T02:48:26.497Z,17.87
2023-03-05T02:53:28.098Z,18.23
2023-03-05T02:58:29.718Z,18.30
2023-03-05T03:03:31.481Z,18.50
2023-03-05T03:08:33.099Z,18.47
2023-03-05T03:13:35.128Z,17.43
2023-03-05T03:18:37.067Z,17.07
2023-03-05T03:23:38.630Z,18.60
2023-03-05T03:28:40.366Z,18.33
2023-03-05T03:33:42.053Z,17.47
2023-03-05T03:38:43.853Z,18.73
2023-03-05T03:43:45.465Z,18.97
2023-03-05T03:48:50.643Z,18.37
2023-03-05T03:53:52.228Z,18.47
2023-03-05T03:58:54.434Z,19.97
2023-03-05T04:03:56.134Z,18.50
2023-03-05T04:08:58.179Z,19.03
2023-03-05T04:13:59.719Z,17.30
2023-03-05T04:19:01.249Z,19.70
2023-03-05T04:24:03.111Z,19.33
2023-03-05T04:29:04.816Z,18.47
2023-03-05T04:34:06.391Z,19.30
2023-03-05T04:39:08.017Z,18.83
2023-03-05T04:44:09.594Z,18.77
2023-03-05T04:49:11.255Z,18.20
2023-03-05T04:54:12.892Z,18.33
2023-03-05T04:59:14.595Z,18.33
2023-03-05T05:04:16.208Z,19.37
2023-03-05T05:09:17.847Z,18.70
2023-03-05T05:14:20.133Z,18.00
2023-03-05T05:19:22.069Z,18.47
2023-03-05T05:24:23.944Z,17.87
2023-03-05T05:29:26.173Z,19.23
2023-03-05T05:34:27.747Z,19.50
2023-03-05T05:39:29.407Z,18.43
2023-03-05T05:44:31.089Z,19.37
2023-03-05T05:49:32.698Z,19.03
2023-03-05T05:54:34.781Z,19.63
2023-03-05T05:59:37.522Z,19.67
2023-03-05T06:04:40.329Z,19.43
2023-03-05T06:09:41.946Z,20.73
2023-03-05T06:14:43.648Z,20.93
2023-03-05T06:19:45.775Z,20.83
2023-03-05T06:24:47.373Z,21.17
2023-03-05T06:29:52.597Z,21.73
2023-03-05T06:34:54.337Z,19.83
2023-03-05T06:39:55.991Z,19.97
2023-03-05T06:44:57.536Z,20.30
2023-03-05T06:49:59.105Z,19.47
2023-03-05T06:55:00.698Z,20.83
2023-03-05T07:00:07.971Z,20.60
2023-03-05T07:05:09.911Z,20.57
2023-03-05T07:10:11.900Z,20.37
2023-03-05T07:15:13.554Z,19.73
2023-03-05T07:20:15.311Z,20.20
2023-03-05T07:25:21.525Z,20.30
2023-03-05T07:30:23.236Z,20.23
2023-03-05T07:35:25.083Z,18.67
2023-03-05T07:40:26.696Z,19.63
2023-03-05T07:45:28.451Z,19.23
2023-03-05T07:50:30.008Z,19.73
2023-03-05T07:55:31.609Z,19.83
2023-03-05T08:00:33.185Z,18.20
2023-03-05T08:05:34.996Z,19.03
2023-03-05T08:10:37.738Z,16.83
2023-03-05T08:15:39.422Z,18.10
2023-03-05T08:20:41.106Z,18.57
2023-03-05T08:25:42.662Z,16.93
2023-03-05T08:30:44.347Z,18.17
2023-03-05T08:35:46.190Z,17.77
2023-03-05T08:40:48.268Z,16.93
2023-03-05T08:45:51.320Z,17.83
2023-03-05T08:50:53.278Z,18.17
2023-03-05T08:55:56.588Z,18.73
2023-03-05T09:00:58.335Z,16.90
2023-03-05T09:06:04.902Z,16.60
2023-03-05T09:11:08.453Z,16.37
2023-03-05T09:16:15.894Z,17.13
2023-03-05T09:21:18.193Z,16.47
2023-03-05T09:26:20.213Z,15.27
2023-03-05T09:31:21.840Z,17.77
2023-03-05T09:36:28.112Z,15.47
2023-03-05T09:42:04.315Z,18.13
2023-03-05T09:47:33.310Z,13.77
2023-03-05T09:52:50.375Z,13.93
2023-03-05T09:57:55.426Z,14.97
2023-03-05T10:02:59.617Z,17.93
2023-03-05T10:08:04.943Z,16.33
2023-03-05T10:13:16.532Z,13.60
2023-03-05T10:18:49.400Z,13.83
2023-03-05T10:24:01.523Z,13.33
2023-03-05T10:29:36.260Z,11.87
2023-03-05T10:35:07.598Z,11.90
2023-03-05T10:40:47.965Z,11.30
2023-03-05T10:45:54.417Z,11.73
2023-03-05T10:51:02.693Z,14.00
2023-03-05T10:56:06.270Z,11.80
2023-03-05T11:06:43.403Z,9.70
2023-03-05T11:12:08.472Z,10.00
2023-03-05T11:17:24.758Z,9.87
2023-03-05T11:22:26.336Z,9.67
2023-03-05T11:27:33.668Z,8.90
2023-03-05T11:32:35.418Z,9.13
2023-03-05T11:37:37.058Z,8.70
2023-03-05T11:42:40.924Z,8.60
2023-03-05T11:47:50.358Z,9.87
2023-03-05T11:52:57.230Z,9.43
2023-03-05T11:58:17.377Z,8.70
2023-03-05T12:03:24.214Z,8.57
2023-03-05T12:08:33.828Z,8.70
2023-03-05T12:13:42.489Z,8.30
2023-03-05T12:19:07.848Z,9.63
2023-03-05T12:24:27.492Z,9.37
2023-03-05T12:29:41.967Z,8.73
2023-03-05T12:34:49.801Z,8.50
2023-03-05T12:40:10.921Z,8.93
2023-03-05T12:45:12.709Z,9.03
2023-03-05T12:50:29.315Z,14.73
2023-03-05T12:55:45.871Z,15.67
2023-03-05T13:00:59.401Z,13.53
2023-03-05T13:06:04.090Z,12.73
2023-03-05T13:11:09.575Z,13.50
2023-03-05T13:16:23.982Z,13.73
2023-03-05T13:21:29.729Z,13.80
2023-03-05T13:26:40.282Z,14.00
2023-03-05T13:31:50.148Z,13.13
2023-03-05T13:37:01.359Z,13.83
2023-03-05T13:42:02.914Z,13.60
2023-03-05T13:47:18.143Z,14.27
2023-03-05T13:52:28.591Z,13.40
2023-03-05T13:57:42.215Z,13.30
2023-03-05T14:02:44.355Z,14.50
2023-03-05T14:07:49.863Z,14.13
2023-03-05T14:12:51.462Z,13.80
2023-03-05T14:18:08.619Z,13.20
2023-03-05T14:23:46.916Z,13.37
2023-03-05T14:28:54.281Z,15.70
2023-03-05T14:34:01.955Z,15.33
2023-03-05T14:39:04.953Z,15.17
2023-03-05T14:44:15.378Z,14.30
2023-03-05T14:49:17.451Z,14.90
2023-03-05T14:54:25.990Z,15.43
2023-03-05T14:59:27.726Z,15.37
2023-03-05T15:04:29.371Z,13.23
2023-03-05T15:09:30.962Z,14.13
2023-03-05T15:14:32.533Z,13.20
2023-03-05T15:19:34.081Z,12.97
2023-03-05T15:24:35.667Z,14.60
2023-03-05T15:29:37.307Z,14.87
2023-03-05T15:34:38.943Z,14.03
2023-03-05T15:39:40.660Z,13.63
2023-03-05T15:44:42.460Z,12.83
2023-03-05T15:49:44.023Z,13.07
2023-03-05T15:54:45.610Z,11.50
2023-03-05T15:59:47.267Z,13.03
2023-03-05T16:04:48.880Z,12.33
2023-03-05T16:09:51.889Z,12.23
2023-03-05T16:14:53.536Z,11.50
2023-03-05T16:19:56.249Z,11.60
2023-03-05T16:24:58.391Z,11.83
2023-03-05T16:30:00.178Z,11.03
2023-03-05T16:35:01.846Z,11.83
2023-03-05T16:40:04.249Z,12.83
2023-03-05T16:45:07.468Z,12.30
2023-03-05T16:50:10.952Z,13.77
2023-03-05T16:55:12.815Z,13.20
2023-03-05T17:00:15.086Z,12.53
2023-03-05T17:05:16.857Z,12.17
2023-03-05T17:10:18.688Z,11.87
2023-03-05T17:15:20.377Z,10.80
2023-03-05T17:20:22.112Z,16.67
2023-03-05T17:25:23.831Z,15.53
2023-03-05T17:30:25.560Z,23.20
2023-03-05T17:35:27.821Z,20.57
2023-03-05T17:40:29.612Z,16.03
2023-03-05T17:45:31.588Z,11.73
2023-03-05T17:50:33.387Z,11.67
2023-03-05T17:55:35.224Z,10.90
2023-03-05T18:00:37.555Z,8.50
2023-03-05T18:05:40.951Z,8.57
2023-03-05T18:10:42.705Z,7.93
2023-03-05T18:15:47.750Z,8.30
2023-03-05T18:20:49.829Z,9.47
2023-03-05T18:25:51.689Z,13.73
2023-03-05T18:30:53.486Z,11.70
2023-03-05T18:35:55.278Z,9.27
2023-03-05T18:41:01.422Z,8.17
2023-03-05T18:46:05.107Z,8.50
2023-03-05T18:51:14.033Z,10.07
2023-03-05T18:56:15.700Z,8.93
2023-03-05T19:01:18.603Z,12.67
2023-03-05T19:06:20.327Z,9.83
2023-03-05T19:11:22.084Z,8.70
2023-03-05T19:16:27.838Z,9.37
2023-03-05T19:21:31.244Z,9.10
2023-03-05T19:26:33.707Z,8.27
2023-03-05T19:31:36.845Z,9.50
2023-03-05T19:36:38.756Z,9.17
2023-03-05T19:41:40.381Z,11.30
2023-03-05T19:46:43.580Z,9.83
2023-03-05T19:51:46.473Z,9.17
2023-03-05T19:56:49.144Z,8.70
2023-03-05T20:01:51.143Z,10.43
2023-03-05T20:06:52.890Z,11.23
2023-03-05T20:11:54.670Z,15.23
2023-03-05T20:16:56.313Z,9.43
2023-03-05T20:21:57.974Z,11.73
2023-03-05T20:27:00.631Z,11.63
2023-03-05T20:32:02.532Z,10.47
2023-03-05T20:37:05.681Z,9.73
2023-03-05T20:42:07.342Z,10.20
2023-03-05T20:47:46.478Z,13.23
2023-03-05T20:52:48.173Z,12.20
2023-03-05T20:57:49.834Z,12.27
2023-03-05T21:02:54.626Z,10.07
2023-03-05T21:07:57.613Z,10.00
2023-03-05T21:13:00.892Z,10.20
2023-03-05T21:18:02.710Z,9.13
2023-03-05T21:23:04.534Z,10.00
2023-03-05T21:28:16.507Z,10.73
2023-03-05T21:33:24.516Z,10.20
2023-03-05T21:38:29.877Z,11.53
2023-03-05T21:43:32.355Z,10.37
2023-03-05T21:48:34.301Z,9.80
2023-03-05T21:53:36.303Z,8.60
2023-03-05T21:58:38.063Z,9.33
2023-03-05T22:03:39.827Z,9.17
2023-03-05T22:08:41.780Z,8.77
2023-03-05T22:13:43.572Z,9.67
2023-03-05T22:18:45.256Z,10.10
2023-03-05T22:23:47.278Z,10.57
2023-03-05T22:28:48.942Z,10.90
2023-03-05T22:33:51.188Z,9.37
2023-03-05T22:38:52.993Z,10.17
2023-03-05T22:43:54.738Z,10.10
2023-03-05T22:48:56.451Z,9.77
2023-03-05T22:53:58.292Z,9.77
2023-03-05T22:58:59.938Z,10.47
2023-03-05T23:04:49.765Z,10.20
2023-03-05T23:09:54.080Z,11.43
2023-03-05T23:14:55.930Z,10.17
2023-03-05T23:19:57.754Z,10.10
2023-03-05T23:24:59.437Z,9.63
2023-03-05T23:30:23.062Z,9.07
2023-03-05T23:35:29.039Z,10.27
2023-03-05T23:40:33.972Z,12.03
2023-03-05T23:45:35.635Z,8.73
2023-03-05T23:50:40.887Z,10.40
2023-03-05T23:55:44.484Z,9.20
